Saint Monans, United Kingdom

11:59 PM BST on October 25, 2014 (GMT +0100)
APRSWXNET Elie UK | Change Station
CLOSE
Current Station
Personal Weather Station
Location: Fife Ness,
Elevation: 32 ft
Nearby Weather Stations

Elev 32 ft 56.19 °N, 2.82 °W | Updated 652 days ago

Partly Cloudy
Partly Cloudy
51 °F
Feels Like 51 °F
N
24
Wind Variable Wind from SW
Gusts mph

Today
High -- | Low -- °F
--% Chance of Precip.
Yesterday
High -- | Low -- °F
Precip. -- in
8:03 AM 5:46 PM
Waxing Crescent, 5% visible
Pressure 29.62 in
Visibility 6.2 miles
Clouds Scattered Clouds 2500 ft
Dew Point 46 °F
Humidity 85%
Rainfall 0.00 in
Snow Depth Not available.
UV 0 out of 12
Pollen Not available.
Air Quality Not available.
Flu Activity Not available.
METAR EGQL 252250Z 24025KT 9999 SCT025 11/07 Q1003 BLU

More Conditions Fewer Conditions

Pressure 29.62 in
Visibility 6.2 miles
Clouds Scattered Clouds 2500 ft
Dew Point 46 °F
Humidity 85%
Rainfall 0.00 in
Snow Depth Not available.
UV 0 out of 12
Pollen Not available.
Air Quality Not available.
Flu Activity Not available.
METAR EGQL 252250Z 24025KT 9999 SCT025 11/07 Q1003 BLU

More Conditions Fewer Conditions

10-Day Weather Forecast

Almanac

Astronomy

Oct. 25, 2014 Rise Set
Actual Time 8:03 AM BST 5:46 PM BST
Civil Twilight 7:24 AM BST 6:25 PM BST
Nautical Twilight 6:40 AM BST 7:08 PM BST
Astronomical Twilight 5:57 AM BST 7:51 PM BST
Moon 9:41 AM BST 6:43 PM BST
Length of Visible Light 11h 00m
Length of Day
9h 42m
Tomorrow will be 4m 29s shorter.
Waxing Crescent, 5% of the Moon is Illuminated
Today
Waxing Crescent
Oct 30
First Quarter
Nov 6
Full
Nov 14
Last Quarter
Nov 22
New

Yesterday's Extremes

Country Highs Country Lows

Community

WunderPhotos

Upload Photos

1,765,016 photos uploaded!

Nearby

Snow Depth

Not available.

Earthquake Activity

City Distance Mag. Time & Date
No recent earthquake activity has been reported nearby.
Minimum magnitude displayed is 2.5.

Coastal Water Temperatures

Place Temperature
No Stations Reporting

Nearby Weather Stations